首页
METAR-TAF:

METAR-TAF

机场 :

英迪拉·甘地国际机场

新德里, 印度

纬度: 28-34N, 经度: 077-07E, 海拔: 220米

当前天气观测

该预报发布于37分钟前的09:00 UTC
风速10节,风向西转西北,有时为20节阵风
温度 37°C
湿度 24%
气压 1005 hPa
能見度: 5000

METAR: VIDP 250900Z 29010G20KT 5000 HZ NSC 37/13 Q1005 NOSIG

时间: 15:07 (09:37 UTC)

预报

该预报发布于1小时和37分钟前的08:00 UTC
预报有效从25日的 09点(UTC)到 25日的 18点(UTC)
风速8节,风向西北,有时为18节阵风
能見度: 5000
成为
从 25日的 15点(UTC)到 25日的 17点(UTC)
风速8节,风向
能見度: 3000

TAF: VIDP 250800Z 2509/2518 32008G18KT 5000 HZ NSC BECMG 2515/2517 35008KT 3000 HZ

超过4000个机场的气象观测和天气预报(METAR&TAF报告)。

可查询的气象台以黄色和红色小点在地图上表示。

将鼠标移到小点上方,可查看气象台名称。

然后点击查看天气观测和预报。

如需切换地图:点击带黑十字的绿色按钮放大地图;点击带横线的绿色按钮缩小地图;或者点击绿色箭头查看邻近地区的地图。


METAR-TAF: